createdAt,value
2017-06-21T04:00:26.867Z,16.47
2017-06-21T04:00:52.353Z,16.39
2017-06-21T04:01:17.834Z,16.43
2017-06-21T04:01:43.306Z,16.39
2017-06-21T04:02:08.774Z,16.47
2017-06-21T04:02:34.248Z,16.39
2017-06-21T04:02:59.717Z,16.47
2017-06-21T04:03:25.197Z,16.46
2017-06-21T04:03:50.669Z,16.38
2017-06-21T04:04:16.139Z,16.5
2017-06-21T04:04:41.639Z,16.49
2017-06-21T04:05:07.083Z,16.43
2017-06-21T04:05:32.565Z,16.5
2017-06-21T04:05:58.058Z,16.47
2017-06-21T04:06:23.516Z,16.43
2017-06-21T04:06:48.951Z,16.49
2017-06-21T04:07:14.419Z,16.6
2017-06-21T04:07:39.886Z,16.53
2017-06-21T04:08:05.381Z,16.56
2017-06-21T04:08:30.873Z,16.53
2017-06-21T04:08:56.326Z,16.58
2017-06-21T04:09:21.809Z,16.54
2017-06-21T04:09:47.312Z,16.53
2017-06-21T04:10:12.742Z,16.54
2017-06-21T04:10:38.206Z,16.51
2017-06-21T04:11:03.676Z,16.54
2017-06-21T04:11:29.173Z,16.46
2017-06-21T04:11:54.614Z,16.49
2017-06-21T04:12:20.075Z,16.51
2017-06-21T04:12:45.564Z,16.5
2017-06-21T04:13:11.061Z,16.43
2017-06-21T04:13:36.500Z,16.51
2017-06-21T04:14:01.995Z,16.46
2017-06-21T04:14:27.447Z,16.47
2017-06-21T04:14:52.908Z,16.56
2017-06-21T04:15:18.399Z,16.57
2017-06-21T04:15:43.851Z,16.56
2017-06-21T04:16:09.378Z,16.53
2017-06-21T04:16:34.839Z,16.5
2017-06-21T04:17:00.311Z,16.47
2017-06-21T04:17:25.782Z,16.56
2017-06-21T04:17:51.277Z,16.47
2017-06-21T04:18:16.764Z,16.51
2017-06-21T04:18:42.280Z,16.51
2017-06-21T04:19:07.755Z,16.5
2017-06-21T04:19:33.246Z,16.51
2017-06-21T04:19:58.721Z,16.54
2017-06-21T04:20:24.231Z,16.49
2017-06-21T04:20:49.741Z,16.51
2017-06-21T04:21:15.236Z,16.51
2017-06-21T04:21:40.663Z,16.58
2017-06-21T04:22:06.160Z,16.56
2017-06-21T04:22:31.645Z,16.57
2017-06-21T04:22:57.144Z,16.47
2017-06-21T04:23:22.616Z,16.51
2017-06-21T04:23:48.135Z,16.49
2017-06-21T04:24:13.646Z,16.5
2017-06-21T04:24:39.165Z,16.49
2017-06-21T04:25:04.639Z,16.46
2017-06-21T04:25:30.151Z,16.49
2017-06-21T04:25:55.622Z,16.54
2017-06-21T04:26:21.106Z,16.57
2017-06-21T04:26:46.571Z,16.54
2017-06-21T04:27:12.042Z,16.57
2017-06-21T04:27:37.502Z,16.5
2017-06-21T04:28:02.978Z,16.57
2017-06-21T04:28:28.489Z,16.53
2017-06-21T04:28:53.964Z,16.58
2017-06-21T04:29:19.473Z,16.51
2017-06-21T04:29:44.970Z,16.51
2017-06-21T04:30:10.465Z,16.54
2017-06-21T04:30:35.971Z,16.53
2017-06-21T04:31:01.470Z,16.5
2017-06-21T04:31:26.913Z,16.56
2017-06-21T04:31:52.389Z,16.53
2017-06-21T04:32:17.860Z,16.54
2017-06-21T04:32:43.300Z,16.54
2017-06-21T04:33:08.760Z,16.51
2017-06-21T04:33:34.248Z,16.6
2017-06-21T04:33:59.690Z,16.6
2017-06-21T04:34:25.179Z,16.58
2017-06-21T04:34:50.652Z,16.6
2017-06-21T04:35:16.105Z,16.65
2017-06-21T04:35:41.630Z,16.65
2017-06-21T04:36:07.133Z,16.74
2017-06-21T04:36:32.625Z,16.64
2017-06-21T04:36:58.069Z,16.71
2017-06-21T04:37:23.545Z,16.71
2017-06-21T04:37:48.991Z,16.65
2017-06-21T04:38:14.483Z,16.69
2017-06-21T04:38:39.951Z,16.68
2017-06-21T04:39:05.438Z,16.65
2017-06-21T04:39:30.906Z,16.69
2017-06-21T04:39:56.413Z,16.83
2017-06-21T04:40:21.913Z,16.81
2017-06-21T04:40:47.357Z,16.79
2017-06-21T04:41:12.816Z,16.81
2017-06-21T04:41:38.304Z,16.86
2017-06-21T04:42:03.787Z,16.87
2017-06-21T04:42:29.246Z,16.93
2017-06-21T04:42:54.706Z,16.96
2017-06-21T04:43:20.181Z,16.97
2017-06-21T04:43:45.648Z,16.94
2017-06-21T04:44:11.118Z,17.04
2017-06-21T04:44:36.601Z,16.99
2017-06-21T04:45:02.223Z,16.99
2017-06-21T04:45:27.789Z,17.14
2017-06-21T04:45:53.223Z,17.06
2017-06-21T04:46:18.670Z,17.14
2017-06-21T04:46:44.194Z,17.09
2017-06-21T04:47:09.644Z,17.09
2017-06-21T04:47:35.112Z,17.12
2017-06-21T04:48:00.577Z,17.15
2017-06-21T04:48:26.200Z,17.2
2017-06-21T04:48:51.657Z,17.26
2017-06-21T04:49:17.306Z,17.27
2017-06-21T04:49:42.749Z,17.31
2017-06-21T04:50:08.252Z,17.34
2017-06-21T04:50:33.787Z,17.33
2017-06-21T04:50:59.306Z,17.31
2017-06-21T04:51:24.774Z,17.45
2017-06-21T04:51:50.383Z,17.46
2017-06-21T04:52:15.882Z,17.48
2017-06-21T04:52:41.364Z,17.49
2017-06-21T04:53:06.878Z,17.38
2017-06-21T04:53:32.390Z,17.51
2017-06-21T04:53:57.893Z,17.42
2017-06-21T04:54:23.339Z,17.52
2017-06-21T04:54:48.880Z,17.56
2017-06-21T04:55:14.373Z,17.63
2017-06-21T04:55:39.848Z,17.67
2017-06-21T04:56:05.328Z,17.82
2017-06-21T04:56:30.869Z,17.8
2017-06-21T04:56:56.343Z,17.78
2017-06-21T04:57:21.859Z,17.76
2017-06-21T04:57:47.329Z,17.8
2017-06-21T04:58:12.808Z,17.8
2017-06-21T04:58:38.292Z,17.83
2017-06-21T04:59:03.765Z,17.89
2017-06-21T04:59:29.246Z,17.89
2017-06-21T04:59:54.745Z,17.95
2017-06-21T05:00:20.196Z,17.94
2017-06-21T05:00:45.660Z,17.98
2017-06-21T05:01:11.130Z,17.94
2017-06-21T05:01:36.606Z,17.94
2017-06-21T05:02:02.081Z,18.04
2017-06-21T05:02:27.572Z,17.98
2017-06-21T05:02:53.046Z,17.97
2017-06-21T05:03:18.525Z,17.95
2017-06-21T05:03:43.992Z,18.04
2017-06-21T05:04:09.444Z,18.05
2017-06-21T05:04:34.942Z,18.1
2017-06-21T05:05:00.413Z,18.07
2017-06-21T05:05:25.907Z,18.07
2017-06-21T05:05:51.376Z,18.05
2017-06-21T05:06:16.842Z,18.07
2017-06-21T05:06:42.313Z,18.1
2017-06-21T05:07:07.783Z,18.18
2017-06-21T05:07:33.246Z,18.1
2017-06-21T05:07:58.722Z,18.29
2017-06-21T05:08:24.210Z,18.23
2017-06-21T05:08:49.669Z,18.29
2017-06-21T05:09:15.162Z,18.29
2017-06-21T05:09:40.592Z,18.35
2017-06-21T05:10:06.071Z,18.33
2017-06-21T05:10:31.620Z,18.37
2017-06-21T05:10:57.122Z,18.38
2017-06-21T05:11:22.640Z,18.43
2017-06-21T05:11:48.256Z,18.44
2017-06-21T05:12:13.720Z,18.47
2017-06-21T05:12:39.208Z,18.47
2017-06-21T05:13:04.679Z,18.47
2017-06-21T05:13:30.157Z,18.52
2017-06-21T05:13:55.616Z,18.44
2017-06-21T05:14:21.108Z,18.53
2017-06-21T05:14:46.593Z,18.49
2017-06-21T05:15:12.082Z,18.52
2017-06-21T05:15:37.572Z,18.53
2017-06-21T05:16:03.035Z,18.5
2017-06-21T05:16:28.557Z,18.55
2017-06-21T05:16:54.021Z,18.5
2017-06-21T05:17:19.447Z,18.58
2017-06-21T05:17:44.927Z,18.55
2017-06-21T05:18:10.405Z,18.56
2017-06-21T05:18:35.960Z,18.55
2017-06-21T05:19:01.409Z,18.55
2017-06-21T05:19:26.908Z,18.52
2017-06-21T05:19:52.396Z,18.52
2017-06-21T05:20:17.875Z,18.56
2017-06-21T05:20:43.355Z,18.59
2017-06-21T05:21:08.832Z,18.59
2017-06-21T05:21:34.357Z,18.58
2017-06-21T05:21:59.886Z,18.74
2017-06-21T05:22:25.347Z,18.75
2017-06-21T05:22:50.874Z,18.73
2017-06-21T05:23:16.381Z,18.74
2017-06-21T05:23:41.866Z,18.75
2017-06-21T05:24:07.339Z,18.75
2017-06-21T05:24:55.183Z,18.78
2017-06-21T05:25:20.668Z,18.75
2017-06-21T05:25:46.145Z,18.74
2017-06-21T05:26:11.759Z,18.74
2017-06-21T05:26:37.183Z,18.74
2017-06-21T05:27:02.682Z,18.59
2017-06-21T05:27:28.182Z,18.6
2017-06-21T05:27:53.672Z,18.59
2017-06-21T05:28:19.122Z,18.66
2017-06-21T05:28:44.574Z,18.65
2017-06-21T05:29:10.052Z,18.77
2017-06-21T05:29:35.497Z,18.6
2017-06-21T05:30:00.965Z,18.6
2017-06-21T05:30:26.504Z,18.55
2017-06-21T05:30:51.990Z,18.62
2017-06-21T05:31:17.442Z,18.55
2017-06-21T05:31:42.956Z,18.62
2017-06-21T05:32:08.399Z,18.53
2017-06-21T05:32:33.905Z,18.6
2017-06-21T05:32:59.447Z,18.56
2017-06-21T05:33:24.971Z,18.59
2017-06-21T05:33:50.503Z,18.68
2017-06-21T05:34:15.982Z,18.52
2017-06-21T05:34:41.477Z,18.5
2017-06-21T05:35:06.961Z,18.55
2017-06-21T05:35:32.406Z,18.49
2017-06-21T05:35:57.858Z,18.52
2017-06-21T05:36:23.326Z,18.53
2017-06-21T05:36:48.816Z,18.6
2017-06-21T05:37:14.292Z,18.63
2017-06-21T05:37:39.784Z,18.74
2017-06-21T05:38:05.246Z,18.65
2017-06-21T05:38:30.713Z,18.8
2017-06-21T05:38:56.240Z,18.73
2017-06-21T05:39:21.638Z,18.8
2017-06-21T05:39:47.112Z,18.8
2017-06-21T05:40:12.600Z,18.89
2017-06-21T05:40:38.085Z,18.9
2017-06-21T05:41:03.638Z,18.95
2017-06-21T05:41:29.072Z,18.95
2017-06-21T05:41:54.596Z,18.88
2017-06-21T05:42:20.044Z,19
2017-06-21T05:42:45.512Z,18.99
2017-06-21T05:43:11.008Z,18.89
2017-06-21T05:43:36.464Z,18.93
2017-06-21T05:44:01.937Z,19.04
2017-06-21T05:44:27.424Z,18.92
2017-06-21T05:44:52.911Z,18.95
2017-06-21T05:45:18.399Z,18.95
2017-06-21T05:45:43.871Z,18.98
2017-06-21T05:46:09.364Z,18.92
2017-06-21T05:46:34.814Z,18.99
2017-06-21T05:47:00.284Z,19
2017-06-21T05:47:25.740Z,18.96
2017-06-21T05:47:51.249Z,18.98
2017-06-21T05:48:16.705Z,18.99
2017-06-21T05:48:42.149Z,19
2017-06-21T05:49:07.625Z,19.09
2017-06-21T05:49:33.135Z,19.02
2017-06-21T05:49:58.594Z,19.26
2017-06-21T05:50:24.096Z,19.18
2017-06-21T05:50:49.551Z,19.19
2017-06-21T05:51:15.048Z,19.27
2017-06-21T05:51:40.519Z,19.22
2017-06-21T05:52:06.004Z,19.31
2017-06-21T05:52:31.493Z,19.26
2017-06-21T05:52:56.981Z,19.21
2017-06-21T05:53:22.413Z,19.26
2017-06-21T05:53:47.844Z,19.22
2017-06-21T05:54:13.338Z,19.3
2017-06-21T05:54:38.781Z,19.27
2017-06-21T05:55:04.236Z,19.39
2017-06-21T05:55:29.708Z,19.31
2017-06-21T05:55:55.218Z,19.33
2017-06-21T05:56:20.733Z,19.44
2017-06-21T05:56:46.211Z,19.45
2017-06-21T05:57:11.678Z,19.49
2017-06-21T05:57:37.160Z,19.45
2017-06-21T05:58:02.774Z,19.49
2017-06-21T05:58:28.263Z,19.45
2017-06-21T05:58:53.751Z,19.55
2017-06-21T05:59:19.244Z,19.58
2017-06-21T05:59:44.692Z,19.56
2017-06-21T06:00:10.197Z,19.63
2017-06-21T06:00:35.659Z,19.62
2017-06-21T06:01:01.096Z,19.63
2017-06-21T06:01:26.595Z,19.58
2017-06-21T06:01:52.083Z,19.62
2017-06-21T06:02:17.546Z,19.63
2017-06-21T06:02:43.031Z,19.64
2017-06-21T06:03:08.493Z,19.58
2017-06-21T06:03:33.961Z,19.63
2017-06-21T06:03:59.416Z,19.66
2017-06-21T06:04:24.904Z,19.59
2017-06-21T06:04:50.346Z,19.62
2017-06-21T06:05:15.830Z,19.63
2017-06-21T06:05:41.318Z,19.73
2017-06-21T06:06:06.780Z,19.71
2017-06-21T06:06:32.282Z,19.76
2017-06-21T06:06:57.747Z,19.77
2017-06-21T06:07:23.228Z,19.71
2017-06-21T06:07:48.827Z,19.76
2017-06-21T06:08:14.343Z,19.71
2017-06-21T06:08:39.814Z,19.7
2017-06-21T06:09:05.288Z,19.63
2017-06-21T06:09:30.754Z,19.66
2017-06-21T06:09:56.226Z,19.63
2017-06-21T06:10:21.676Z,19.54
2017-06-21T06:10:47.147Z,19.56
2017-06-21T06:11:12.617Z,19.58
2017-06-21T06:11:38.108Z,19.49
2017-06-21T06:12:03.613Z,19.48
2017-06-21T06:12:29.069Z,19.51
2017-06-21T06:12:54.550Z,19.54
2017-06-21T06:13:19.992Z,19.44
2017-06-21T06:13:45.466Z,19.44
2017-06-21T06:14:10.943Z,19.41
2017-06-21T06:14:36.379Z,19.39
2017-06-21T06:15:01.833Z,19.44
2017-06-21T06:15:27.292Z,19.41
2017-06-21T06:15:52.770Z,19.47
2017-06-21T06:16:18.249Z,19.47
2017-06-21T06:16:43.743Z,19.44
2017-06-21T06:17:09.210Z,19.52
2017-06-21T06:17:34.661Z,19.47
2017-06-21T06:18:00.139Z,19.49
2017-06-21T06:18:25.619Z,19.51
2017-06-21T06:18:51.086Z,19.54
2017-06-21T06:19:16.509Z,19.49
2017-06-21T06:19:41.999Z,19.58
2017-06-21T06:20:07.550Z,19.58
2017-06-21T06:20:33.055Z,19.64
2017-06-21T06:20:58.491Z,19.63
2017-06-21T06:21:23.997Z,19.73
2017-06-21T06:21:49.447Z,19.74
2017-06-21T06:22:14.934Z,19.82
2017-06-21T06:22:40.401Z,19.82
2017-06-21T06:23:05.867Z,19.95
2017-06-21T06:23:31.328Z,19.95
2017-06-21T06:23:56.801Z,20.02
2017-06-21T06:24:22.255Z,20.11
2017-06-21T06:24:47.755Z,20.11
2017-06-21T06:25:13.223Z,20.14
2017-06-21T06:25:38.726Z,20.06
2017-06-21T06:26:04.186Z,20.16
2017-06-21T06:26:29.648Z,20.13
2017-06-21T06:26:55.155Z,20.18
2017-06-21T06:27:20.609Z,20.09
2017-06-21T06:27:46.110Z,20.16
2017-06-21T06:28:11.618Z,20.21
2017-06-21T06:28:37.209Z,20.19
2017-06-21T06:29:02.652Z,20.14
2017-06-21T06:29:28.121Z,20.24
2017-06-21T06:29:53.603Z,20.28
2017-06-21T06:30:19.086Z,20.29
2017-06-21T06:30:44.552Z,20.32
2017-06-21T06:31:10.016Z,20.37
2017-06-21T06:31:35.499Z,20.37
2017-06-21T06:32:01.027Z,20.32
2017-06-21T06:32:26.504Z,20.29
2017-06-21T06:32:52.097Z,20.28
2017-06-21T06:33:17.440Z,20.37
2017-06-21T06:33:43.007Z,20.24
2017-06-21T06:34:08.512Z,20.24
2017-06-21T06:34:34.009Z,20.25
2017-06-21T06:34:59.465Z,20.21
2017-06-21T06:35:24.935Z,20.31
2017-06-21T06:35:50.402Z,20.32
2017-06-21T06:36:15.872Z,20.39
2017-06-21T06:36:41.325Z,20.39
2017-06-21T06:37:06.825Z,20.39
2017-06-21T06:37:32.258Z,20.5
2017-06-21T06:37:57.752Z,20.43
2017-06-21T06:38:23.217Z,20.52
2017-06-21T06:38:48.733Z,20.6
2017-06-21T06:39:14.207Z,20.59
2017-06-21T06:39:39.668Z,20.69
2017-06-21T06:40:05.124Z,20.74
2017-06-21T06:40:30.619Z,20.8
2017-06-21T06:40:56.091Z,20.74
2017-06-21T06:41:21.587Z,20.82
2017-06-21T06:41:47.134Z,20.77
2017-06-21T06:42:12.564Z,20.82
2017-06-21T06:42:38.077Z,20.93
2017-06-21T06:43:03.571Z,20.97
2017-06-21T06:43:29.059Z,20.93
2017-06-21T06:43:54.533Z,20.93
2017-06-21T06:44:19.996Z,21.02
2017-06-21T06:44:45.481Z,21
2017-06-21T06:45:10.966Z,21.18
2017-06-21T06:45:36.443Z,20.97
2017-06-21T06:46:01.915Z,21.02
2017-06-21T06:46:27.400Z,21.09
2017-06-21T06:46:52.888Z,21.05
2017-06-21T06:47:18.357Z,21.05
2017-06-21T06:47:43.800Z,21.2
2017-06-21T06:48:09.314Z,21.18
2017-06-21T06:48:34.776Z,21.25
2017-06-21T06:49:00.227Z,21.3
2017-06-21T06:49:25.691Z,21.37
2017-06-21T06:49:51.141Z,21.4
2017-06-21T06:50:16.589Z,21.45
2017-06-21T06:50:42.100Z,21.43
2017-06-21T06:51:07.581Z,21.42
2017-06-21T06:51:33.052Z,21.42
2017-06-21T06:51:58.548Z,21.35
2017-06-21T06:52:24.053Z,21.37
2017-06-21T06:52:49.554Z,21.37
2017-06-21T06:53:15.059Z,21.37
2017-06-21T06:53:40.565Z,21.45
2017-06-21T06:54:06.018Z,21.45
2017-06-21T06:54:31.484Z,21.45
2017-06-21T06:54:56.968Z,21.48
2017-06-21T06:55:22.492Z,21.51
2017-06-21T06:55:47.955Z,21.57
2017-06-21T06:56:13.450Z,21.57
2017-06-21T06:56:38.949Z,21.7
2017-06-21T06:57:04.459Z,21.66
2017-06-21T06:57:29.938Z,21.69
2017-06-21T06:57:55.445Z,21.7
2017-06-21T06:58:20.903Z,21.58
2017-06-21T06:58:46.377Z,21.61
2017-06-21T06:59:11.855Z,21.54
2017-06-21T06:59:37.328Z,21.6
2017-06-21T07:00:02.795Z,21.58
2017-06-21T07:00:28.268Z,21.58
2017-06-21T07:00:53.797Z,21.55
2017-06-21T07:01:19.258Z,21.61
2017-06-21T07:01:44.769Z,21.6
2017-06-21T07:02:10.236Z,21.6
2017-06-21T07:02:35.713Z,21.7
2017-06-21T07:03:01.160Z,21.62
2017-06-21T07:03:26.616Z,21.66
2017-06-21T07:03:52.306Z,21.7
2017-06-21T07:04:17.705Z,21.79
2017-06-21T07:04:43.234Z,21.79
2017-06-21T07:05:08.835Z,21.77
2017-06-21T07:05:34.320Z,21.85
2017-06-21T07:06:00.050Z,21.85
2017-06-21T07:06:25.553Z,21.83
2017-06-21T07:06:50.937Z,21.91
2017-06-21T07:07:16.467Z,21.92
2017-06-21T07:07:42.030Z,21.93
2017-06-21T07:08:07.607Z,21.95
2017-06-21T07:08:33.019Z,22.02
2017-06-21T07:08:58.667Z,21.92
2017-06-21T07:09:24.455Z,22.04
2017-06-21T07:09:49.825Z,22.07
2017-06-21T07:10:15.402Z,22.11
2017-06-21T07:10:40.868Z,22.14
2017-06-21T07:11:06.297Z,22.22
2017-06-21T07:11:31.793Z,22.15
2017-06-21T07:11:57.254Z,22.2
2017-06-21T07:12:22.687Z,22.26
2017-06-21T07:12:48.169Z,22.29
2017-06-21T07:13:13.621Z,22.3
2017-06-21T07:13:39.090Z,22.38
2017-06-21T07:14:04.568Z,22.38
2017-06-21T07:14:30.086Z,22.38
2017-06-21T07:14:55.560Z,22.39
2017-06-21T07:15:21.061Z,22.33
2017-06-21T07:15:46.533Z,22.44
2017-06-21T07:16:12.047Z,22.54
2017-06-21T07:16:37.533Z,22.48
2017-06-21T07:17:03.006Z,22.47
2017-06-21T07:17:28.485Z,22.5
2017-06-21T07:17:53.960Z,22.53
2017-06-21T07:18:19.439Z,22.47
2017-06-21T07:18:44.944Z,22.48
2017-06-21T07:19:10.402Z,22.53
2017-06-21T07:19:35.852Z,22.51
2017-06-21T07:20:44.068Z,22.51
2017-06-21T07:21:09.528Z,22.45
2017-06-21T07:21:34.988Z,22.55
2017-06-21T07:22:00.458Z,22.54
2017-06-21T07:22:25.923Z,22.54
2017-06-21T07:22:51.407Z,22.59
2017-06-21T07:23:16.864Z,22.51
2017-06-21T07:23:42.309Z,22.66
2017-06-21T07:24:07.768Z,22.69
2017-06-21T07:24:33.250Z,22.6
2017-06-21T07:24:58.715Z,22.65
2017-06-21T07:25:24.165Z,22.73
2017-06-21T07:25:49.681Z,22.75
2017-06-21T07:26:15.145Z,22.75
2017-06-21T07:26:40.619Z,22.73
2017-06-21T07:27:06.145Z,22.8
2017-06-21T07:27:31.601Z,22.85
2017-06-21T07:27:57.082Z,22.8
2017-06-21T07:28:22.556Z,22.75
2017-06-21T07:28:48.160Z,22.78
2017-06-21T07:29:13.601Z,22.78
2017-06-21T07:29:39.070Z,22.78
2017-06-21T07:30:04.546Z,22.85
2017-06-21T07:30:30.022Z,22.8
2017-06-21T07:30:55.476Z,22.83
2017-06-21T07:31:20.958Z,22.91
2017-06-21T07:31:46.403Z,22.94
2017-06-21T07:32:11.858Z,22.91
2017-06-21T07:32:37.330Z,23.02
2017-06-21T07:33:02.801Z,23.05
2017-06-21T07:33:28.257Z,23.02
2017-06-21T07:33:53.725Z,23.13
2017-06-21T07:34:19.204Z,23.15
2017-06-21T07:34:44.635Z,23.13
2017-06-21T07:35:10.186Z,23.15
2017-06-21T07:35:35.631Z,23.05
2017-06-21T07:36:01.091Z,23.12
2017-06-21T07:36:26.616Z,23.15
2017-06-21T07:36:52.077Z,23.17
2017-06-21T07:37:17.563Z,23.17
2017-06-21T07:37:43.047Z,23.12
2017-06-21T07:38:08.508Z,23.1
2017-06-21T07:38:33.959Z,23.17
2017-06-21T07:38:59.429Z,23.15
2017-06-21T07:39:24.901Z,23.15
2017-06-21T07:39:50.407Z,23.1
2017-06-21T07:40:15.887Z,23.1
2017-06-21T07:40:41.353Z,23.12
2017-06-21T07:41:06.863Z,23.23
2017-06-21T07:41:32.351Z,23.2
2017-06-21T07:41:57.795Z,23.18
2017-06-21T07:42:23.278Z,23.12
2017-06-21T07:42:48.779Z,23.13
2017-06-21T07:43:14.250Z,23.17
2017-06-21T07:43:39.719Z,23.17
2017-06-21T07:44:05.241Z,23.2
2017-06-21T07:44:30.720Z,23.13
2017-06-21T07:44:56.203Z,23.24
2017-06-21T07:45:21.670Z,23.24
2017-06-21T07:45:47.139Z,23.32
2017-06-21T07:46:12.615Z,23.25
2017-06-21T07:46:38.093Z,23.32
2017-06-21T07:47:03.567Z,23.36
2017-06-21T07:47:29.019Z,23.46
2017-06-21T07:47:54.545Z,23.55
2017-06-21T07:48:20.017Z,23.59
2017-06-21T07:48:45.510Z,23.65
2017-06-21T07:49:10.975Z,23.65
2017-06-21T07:49:36.474Z,23.69
2017-06-21T07:50:01.987Z,23.68
2017-06-21T07:50:27.460Z,23.78
2017-06-21T07:50:53.034Z,23.77
2017-06-21T07:51:18.554Z,23.74
2017-06-21T07:51:44.034Z,23.78
2017-06-21T07:52:09.472Z,23.76
2017-06-21T07:52:34.955Z,23.66
2017-06-21T07:53:00.423Z,23.69
2017-06-21T07:53:25.905Z,23.66
2017-06-21T07:53:51.399Z,23.68
2017-06-21T07:54:16.878Z,23.77
2017-06-21T07:54:42.371Z,23.74
2017-06-21T07:55:07.812Z,23.77
2017-06-21T07:55:33.305Z,23.68
2017-06-21T07:55:58.830Z,23.68
2017-06-21T07:56:24.309Z,23.74
2017-06-21T07:56:49.777Z,23.68
2017-06-21T07:57:15.257Z,23.77
2017-06-21T07:57:40.748Z,23.65
2017-06-21T07:58:06.201Z,23.73
2017-06-21T07:58:31.685Z,23.81
2017-06-21T07:58:57.175Z,23.84
2017-06-21T07:59:22.622Z,23.78
2017-06-21T07:59:48.076Z,23.84
2017-06-21T08:00:13.556Z,23.91
2017-06-21T08:00:39.017Z,23.92
2017-06-21T08:01:04.499Z,23.96
2017-06-21T08:01:29.969Z,23.98
2017-06-21T08:01:55.493Z,24.02
2017-06-21T08:02:20.978Z,24.05
2017-06-21T08:02:46.572Z,24.03
2017-06-21T08:03:11.967Z,24.08
2017-06-21T08:03:37.447Z,24.13
2017-06-21T08:04:02.960Z,24.24
2017-06-21T08:04:28.397Z,24.24
2017-06-21T08:04:53.851Z,24.26
2017-06-21T08:05:19.337Z,24.18
2017-06-21T08:05:44.825Z,24.21
2017-06-21T08:06:10.320Z,24.18
2017-06-21T08:06:35.778Z,24.14
2017-06-21T08:07:01.224Z,24.1
2017-06-21T08:07:26.679Z,24.08
2017-06-21T08:07:52.126Z,24.11
2017-06-21T08:08:17.572Z,24.01
2017-06-21T08:08:43.069Z,24.06
2017-06-21T08:09:08.573Z,24.03
2017-06-21T08:09:34.077Z,24.05
2017-06-21T08:09:59.567Z,24.02
2017-06-21T08:10:25.056Z,24.1
2017-06-21T08:10:50.584Z,24.14
2017-06-21T08:11:16.030Z,24.17
2017-06-21T08:11:41.533Z,24.17
2017-06-21T08:12:06.979Z,24.21
2017-06-21T08:12:32.428Z,24.26
2017-06-21T08:12:57.898Z,24.23
2017-06-21T08:13:23.377Z,24.26
2017-06-21T08:13:48.881Z,24.3
2017-06-21T08:14:14.360Z,24.39
2017-06-21T08:14:39.869Z,24.45
2017-06-21T08:15:05.362Z,24.42
2017-06-21T08:15:30.828Z,24.5
2017-06-21T08:15:56.286Z,24.53
2017-06-21T08:16:21.783Z,24.55
2017-06-21T08:16:47.257Z,24.65
2017-06-21T08:17:12.767Z,24.61
2017-06-21T08:17:38.245Z,24.78
2017-06-21T08:18:03.732Z,24.81
2017-06-21T08:18:29.216Z,24.76
2017-06-21T08:18:54.702Z,24.85
2017-06-21T08:19:20.207Z,24.86
2017-06-21T08:19:45.656Z,24.88
2017-06-21T08:20:11.184Z,24.99
2017-06-21T08:20:36.693Z,24.92
2017-06-21T08:21:02.227Z,24.95
2017-06-21T08:21:27.725Z,24.95
2017-06-21T08:21:53.377Z,25.03
2017-06-21T08:22:18.781Z,24.96
2017-06-21T08:22:44.373Z,25.01
2017-06-21T08:23:09.907Z,24.98
2017-06-21T08:23:35.338Z,24.98
2017-06-21T08:24:00.823Z,24.91
2017-06-21T08:24:26.323Z,24.92
2017-06-21T08:24:51.934Z,24.92
2017-06-21T08:25:17.351Z,24.98
2017-06-21T08:25:42.864Z,24.99
2017-06-21T08:26:08.329Z,24.95
2017-06-21T08:26:33.819Z,24.96
2017-06-21T08:26:59.268Z,24.98
2017-06-21T08:27:24.760Z,24.95
2017-06-21T08:27:50.278Z,24.95
2017-06-21T08:28:15.771Z,25.01
2017-06-21T08:28:41.246Z,25.04
2017-06-21T08:29:06.714Z,25.08
2017-06-21T08:29:32.253Z,25.13
2017-06-21T08:29:57.736Z,25.11
2017-06-21T08:30:23.232Z,25.18
2017-06-21T08:30:48.713Z,25.25
2017-06-21T08:31:14.167Z,25.21
2017-06-21T08:31:39.658Z,25.25
2017-06-21T08:32:05.118Z,25.25
2017-06-21T08:32:30.596Z,25.29
2017-06-21T08:32:56.084Z,25.44
2017-06-21T08:33:21.564Z,25.32
2017-06-21T08:33:47.034Z,25.46
2017-06-21T08:34:12.526Z,25.44
2017-06-21T08:34:38.002Z,25.47
2017-06-21T08:35:03.586Z,25.46
2017-06-21T08:35:29.025Z,25.5
2017-06-21T08:35:54.531Z,25.47
2017-06-21T08:36:20.002Z,25.48
2017-06-21T08:36:45.485Z,25.48
2017-06-21T08:37:10.980Z,25.51
2017-06-21T08:37:36.454Z,25.6
2017-06-21T08:38:01.935Z,25.65
2017-06-21T08:38:27.424Z,25.62
2017-06-21T08:38:52.856Z,25.69
2017-06-21T08:39:18.330Z,25.59
2017-06-21T08:39:43.783Z,25.66
2017-06-21T08:40:09.297Z,25.68
2017-06-21T08:40:34.718Z,25.7
2017-06-21T08:41:00.265Z,25.68
2017-06-21T08:41:25.764Z,25.72
2017-06-21T08:41:51.227Z,25.69
2017-06-21T08:42:16.694Z,25.7
2017-06-21T08:42:42.179Z,25.7
2017-06-21T08:43:07.639Z,25.7
2017-06-21T08:43:33.096Z,25.7
2017-06-21T08:43:58.582Z,25.66
2017-06-21T08:44:24.048Z,25.66
2017-06-21T08:44:49.534Z,25.68
2017-06-21T08:45:15.007Z,25.7
2017-06-21T08:45:40.529Z,25.72
2017-06-21T08:46:06.013Z,25.72
2017-06-21T08:46:31.460Z,25.72
2017-06-21T08:46:56.932Z,25.72
2017-06-21T08:47:22.421Z,25.73
2017-06-21T08:47:47.897Z,25.77
2017-06-21T08:48:13.456Z,25.73
2017-06-21T08:48:38.941Z,25.66
2017-06-21T08:49:04.436Z,25.78
2017-06-21T08:49:29.903Z,25.77
2017-06-21T08:49:55.374Z,25.78
2017-06-21T08:50:20.854Z,25.81
2017-06-21T08:50:46.306Z,25.81
2017-06-21T08:51:11.776Z,25.84
2017-06-21T08:51:37.244Z,25.85
2017-06-21T08:52:02.685Z,25.88
2017-06-21T08:52:28.178Z,25.91
2017-06-21T08:52:53.613Z,26
2017-06-21T08:53:19.095Z,25.99
2017-06-21T08:53:44.585Z,26
2017-06-21T08:54:10.069Z,26.03
2017-06-21T08:54:35.567Z,26.05
2017-06-21T08:55:01.076Z,26.03
2017-06-21T08:55:26.553Z,26.03
2017-06-21T08:55:52.023Z,25.93
2017-06-21T08:56:17.489Z,25.88
2017-06-21T08:56:42.973Z,25.83
2017-06-21T08:57:08.424Z,25.78
2017-06-21T08:57:33.884Z,25.81
2017-06-21T08:57:59.374Z,25.7
2017-06-21T08:58:24.822Z,25.69
2017-06-21T08:58:50.275Z,25.68
2017-06-21T08:59:15.731Z,25.65
2017-06-21T08:59:41.248Z,25.66
2017-06-21T09:00:06.748Z,25.58
2017-06-21T09:00:32.257Z,25.55
2017-06-21T09:00:57.710Z,25.5
2017-06-21T09:01:23.228Z,25.54
2017-06-21T09:01:48.710Z,25.41
2017-06-21T09:02:14.195Z,25.47
2017-06-21T09:02:39.666Z,25.46
2017-06-21T09:03:05.134Z,25.47
2017-06-21T09:03:30.610Z,25.46
2017-06-21T09:03:56.084Z,25.51
2017-06-21T09:04:21.551Z,25.46
2017-06-21T09:04:47.032Z,25.44
2017-06-21T09:05:12.536Z,25.48
2017-06-21T09:05:37.994Z,25.44
2017-06-21T09:06:03.502Z,25.48
2017-06-21T09:06:28.966Z,25.44
2017-06-21T09:06:54.427Z,25.33
2017-06-21T09:07:19.903Z,25.33
2017-06-21T09:07:45.354Z,25.31
2017-06-21T09:08:10.853Z,25.32
2017-06-21T09:08:36.324Z,25.35
2017-06-21T09:09:01.791Z,25.31
2017-06-21T09:09:27.253Z,25.29
2017-06-21T09:09:52.776Z,25.22
2017-06-21T09:10:18.232Z,25.21
2017-06-21T09:10:43.706Z,25.14
2017-06-21T09:11:09.178Z,25.06
2017-06-21T09:11:34.637Z,25.13
2017-06-21T09:12:00.106Z,25.17
2017-06-21T09:12:25.603Z,25.13
2017-06-21T09:12:51.051Z,25.22
2017-06-21T09:13:16.515Z,25.16
2017-06-21T09:13:41.993Z,25.29
2017-06-21T09:14:07.472Z,25.33
2017-06-21T09:14:32.945Z,25.35
2017-06-21T09:14:58.438Z,25.33
2017-06-21T09:15:23.931Z,25.48
2017-06-21T09:15:49.397Z,25.48
2017-06-21T09:16:14.899Z,25.46
2017-06-21T09:16:40.371Z,25.46
2017-06-21T09:17:05.875Z,25.59
2017-06-21T09:17:31.361Z,25.46
2017-06-21T09:17:56.830Z,25.53
2017-06-21T09:18:22.348Z,25.55
2017-06-21T09:18:47.792Z,25.59
2017-06-21T09:19:13.267Z,25.63
2017-06-21T09:19:38.735Z,25.6
2017-06-21T09:20:04.194Z,25.62
2017-06-21T09:20:29.668Z,25.58
2017-06-21T09:20:55.168Z,25.65
2017-06-21T09:21:20.648Z,25.68
2017-06-21T09:21:46.120Z,25.73
2017-06-21T09:22:11.605Z,25.72
2017-06-21T09:22:37.070Z,25.7
2017-06-21T09:23:02.547Z,25.75
2017-06-21T09:23:28.017Z,25.77
2017-06-21T09:23:53.568Z,25.83
2017-06-21T09:24:19.041Z,25.9
2017-06-21T09:24:44.516Z,25.88
2017-06-21T09:25:09.981Z,25.91
2017-06-21T09:25:35.449Z,25.95
2017-06-21T09:26:00.944Z,25.88
2017-06-21T09:26:26.471Z,25.98
2017-06-21T09:26:51.906Z,26.02
2017-06-21T09:27:17.489Z,26.07
2017-06-21T09:27:43.088Z,26.07
2017-06-21T09:28:08.569Z,26.13
2017-06-21T09:28:34.045Z,26.22
2017-06-21T09:28:59.538Z,26.21
2017-06-21T09:29:25.015Z,26.15
2017-06-21T09:29:50.482Z,26.19
2017-06-21T09:30:15.942Z,26.25
2017-06-21T09:30:41.402Z,26.26